sensor_id;sensor_type;location;lat;lon;timestamp;pressure;altitude;pressure_sealevel;temperature;humidity
31717;BME280;18301;51.076;17.046;2023-04-07T00:02:09;100391.09;;;6.04;63.66
31717;BME280;18301;51.076;17.046;2023-04-07T00:07:11;100387.72;;;6.00;64.36
31717;BME280;18301;51.076;17.046;2023-04-07T00:12:12;100381.75;;;5.95;66.91
31717;BME280;18301;51.076;17.046;2023-04-07T00:17:14;100373.22;;;6.04;65.94
31717;BME280;18301;51.076;17.046;2023-04-07T00:22:15;100383.50;;;6.12;66.90
31717;BME280;18301;51.076;17.046;2023-04-07T00:27:18;100378.13;;;5.96;66.72
31717;BME280;18301;51.076;17.046;2023-04-07T00:32:20;100366.56;;;6.11;67.73
31717;BME280;18301;51.076;17.046;2023-04-07T00:37:22;100366.00;;;5.89;67.97
31717;BME280;18301;51.076;17.046;2023-04-07T00:42:25;100358.16;;;5.68;69.45
31717;BME280;18301;51.076;17.046;2023-04-07T00:47:27;100348.84;;;5.75;68.16
31717;BME280;18301;51.076;17.046;2023-04-07T00:52:28;100336.25;;;5.77;69.03
31717;BME280;18301;51.076;17.046;2023-04-07T00:57:30;100334.19;;;5.83;69.07
31717;BME280;18301;51.076;17.046;2023-04-07T01:02:46;100340.09;;;5.56;70.77
31717;BME280;18301;51.076;17.046;2023-04-07T01:07:57;100325.34;;;5.65;70.16
31717;BME280;18301;51.076;17.046;2023-04-07T01:18:10;100323.69;;;5.46;70.79
31717;BME280;18301;51.076;17.046;2023-04-07T01:23:30;100310.78;;;5.37;70.98
31717;BME280;18301;51.076;17.046;2023-04-07T01:33:45;100321.13;;;5.27;73.05
31717;BME280;18301;51.076;17.046;2023-04-07T01:38:48;100313.75;;;4.98;75.53
31717;BME280;18301;51.076;17.046;2023-04-07T01:43:52;100317.28;;;5.16;72.81
31717;BME280;18301;51.076;17.046;2023-04-07T01:48:55;100310.25;;;5.30;72.62
31717;BME280;18301;51.076;17.046;2023-04-07T01:53:58;100312.50;;;5.38;72.65
31717;BME280;18301;51.076;17.046;2023-04-07T01:59:01;100295.22;;;5.61;72.31
31717;BME280;18301;51.076;17.046;2023-04-07T02:09:24;100302.78;;;5.53;72.61
31717;BME280;18301;51.076;17.046;2023-04-07T02:14:28;100293.22;;;5.49;73.57
31717;BME280;18301;51.076;17.046;2023-04-07T02:19:30;100294.91;;;4.83;78.20
31717;BME280;18301;51.076;17.046;2023-04-07T02:24:31;100291.59;;;4.78;77.21
31717;BME280;18301;51.076;17.046;2023-04-07T02:29:33;100280.31;;;4.89;76.72
31717;BME280;18301;51.076;17.046;2023-04-07T02:34:35;100271.75;;;5.00;76.52
31717;BME280;18301;51.076;17.046;2023-04-07T02:39:36;100279.09;;;4.96;76.32
31717;BME280;18301;51.076;17.046;2023-04-07T02:44:38;100287.50;;;4.89;76.34
31717;BME280;18301;51.076;17.046;2023-04-07T02:49:39;100275.31;;;4.66;79.15
31717;BME280;18301;51.076;17.046;2023-04-07T02:54:41;100272.41;;;4.70;78.71
31717;BME280;18301;51.076;17.046;2023-04-07T02:59:42;100274.91;;;4.73;77.56
31717;BME280;18301;51.076;17.046;2023-04-07T03:04:43;100275.88;;;4.72;77.19
31717;BME280;18301;51.076;17.046;2023-04-07T03:09:45;100270.06;;;4.81;77.57
31717;BME280;18301;51.076;17.046;2023-04-07T03:14:47;100270.22;;;4.78;77.42
31717;BME280;18301;51.076;17.046;2023-04-07T03:19:48;100277.19;;;4.64;79.16
31717;BME280;18301;51.076;17.046;2023-04-07T03:24:52;100282.78;;;4.76;77.76
31717;BME280;18301;51.076;17.046;2023-04-07T03:29:53;100278.13;;;4.80;78.16
31717;BME280;18301;51.076;17.046;2023-04-07T03:34:54;100274.75;;;4.94;77.72
31717;BME280;18301;51.076;17.046;2023-04-07T03:39:56;100278.13;;;4.80;79.29
31717;BME280;18301;51.076;17.046;2023-04-07T03:44:58;100275.56;;;4.78;78.62
31717;BME280;18301;51.076;17.046;2023-04-07T03:49:59;100269.03;;;4.84;79.30
31717;BME280;18301;51.076;17.046;2023-04-07T03:55:01;100264.22;;;4.91;80.06
31717;BME280;18301;51.076;17.046;2023-04-07T04:00:03;100271.78;;;4.82;79.70
31717;BME280;18301;51.076;17.046;2023-04-07T04:05:05;100265.19;;;4.90;79.00
31717;BME280;18301;51.076;17.046;2023-04-07T04:10:07;100263.59;;;4.85;79.65
31717;BME280;18301;51.076;17.046;2023-04-07T04:15:09;100257.78;;;4.60;80.13
31717;BME280;18301;51.076;17.046;2023-04-07T04:20:11;100265.72;;;4.79;79.88
31717;BME280;18301;51.076;17.046;2023-04-07T04:25:12;100273.75;;;4.61;79.90
31717;BME280;18301;51.076;17.046;2023-04-07T04:30:14;100269.91;;;4.50;80.96
31717;BME280;18301;51.076;17.046;2023-04-07T04:35:16;100269.03;;;4.32;82.51
31717;BME280;18301;51.076;17.046;2023-04-07T04:40:17;100267.94;;;4.53;79.92
31717;BME280;18301;51.076;17.046;2023-04-07T04:45:19;100270.53;;;4.37;81.65
31717;BME280;18301;51.076;17.046;2023-04-07T04:50:20;100268.25;;;4.47;81.45
31717;BME280;18301;51.076;17.046;2023-04-07T04:55:22;100270.38;;;4.58;80.08
31717;BME280;18301;51.076;17.046;2023-04-07T05:00:23;100276.19;;;4.66;79.59
31717;BME280;18301;51.076;17.046;2023-04-07T05:05:25;100271.00;;;4.63;78.71
31717;BME280;18301;51.076;17.046;2023-04-07T05:10:26;100269.78;;;5.03;77.48
31717;BME280;18301;51.076;17.046;2023-04-07T05:15:28;100276.50;;;4.77;78.33
31717;BME280;18301;51.076;17.046;2023-04-07T05:20:29;100281.84;;;4.60;78.56
31717;BME280;18301;51.076;17.046;2023-04-07T05:25:31;100274.78;;;4.59;78.69
31717;BME280;18301;51.076;17.046;2023-04-07T05:30:33;100281.28;;;4.36;79.79
31717;BME280;18301;51.076;17.046;2023-04-07T05:35:34;100282.34;;;4.68;78.72
31717;BME280;18301;51.076;17.046;2023-04-07T05:40:35;100282.00;;;4.57;78.86
31717;BME280;18301;51.076;17.046;2023-04-07T05:45:38;100276.81;;;4.54;79.83
31717;BME280;18301;51.076;17.046;2023-04-07T05:50:39;100279.09;;;4.44;79.33
31717;BME280;18301;51.076;17.046;2023-04-07T05:55:41;100279.84;;;4.46;80.19
31717;BME280;18301;51.076;17.046;2023-04-07T06:00:43;100285.22;;;4.64;79.36
31717;BME280;18301;51.076;17.046;2023-04-07T06:05:48;100286.03;;;4.66;78.83
31717;BME280;18301;51.076;17.046;2023-04-07T06:10:50;100285.31;;;4.62;78.41
31717;BME280;18301;51.076;17.046;2023-04-07T06:15:54;100282.78;;;4.42;79.07
31717;BME280;18301;51.076;17.046;2023-04-07T06:20:56;100286.09;;;4.81;79.35
31717;BME280;18301;51.076;17.046;2023-04-07T06:25:57;100279.03;;;4.80;78.41
31717;BME280;18301;51.076;17.046;2023-04-07T06:30:59;100277.13;;;4.82;78.36
31717;BME280;18301;51.076;17.046;2023-04-07T06:36:00;100282.00;;;4.57;79.53
31717;BME280;18301;51.076;17.046;2023-04-07T06:41:02;100282.50;;;4.65;78.54
31717;BME280;18301;51.076;17.046;2023-04-07T06:46:03;100278.38;;;4.93;78.45
31717;BME280;18301;51.076;17.046;2023-04-07T06:51:05;100273.19;;;4.90;79.13
31717;BME280;18301;51.076;17.046;2023-04-07T06:56:09;100271.28;;;4.92;79.02
31717;BME280;18301;51.076;17.046;2023-04-07T07:01:10;100270.97;;;4.98;78.75
31717;BME280;18301;51.076;17.046;2023-04-07T07:06:12;100258.22;;;5.03;79.43
31717;BME280;18301;51.076;17.046;2023-04-07T07:11:13;100255.91;;;5.13;79.18
31717;BME280;18301;51.076;17.046;2023-04-07T07:16:15;100250.34;;;5.17;79.24
31717;BME280;18301;51.076;17.046;2023-04-07T07:21:17;100255.69;;;5.17;78.36
31717;BME280;18301;51.076;17.046;2023-04-07T07:26:19;100268.91;;;5.03;79.37
31717;BME280;18301;51.076;17.046;2023-04-07T07:31:21;100263.91;;;4.97;79.63
31717;BME280;18301;51.076;17.046;2023-04-07T07:36:22;100268.81;;;5.22;78.26
31717;BME280;18301;51.076;17.046;2023-04-07T07:41:24;100277.25;;;5.14;78.20
31717;BME280;18301;51.076;17.046;2023-04-07T07:46:26;100294.91;;;4.83;79.41
31717;BME280;18301;51.076;17.046;2023-04-07T07:51:28;100290.16;;;5.06;79.44
31717;BME280;18301;51.076;17.046;2023-04-07T07:56:29;100296.03;;;5.13;78.86
31717;BME280;18301;51.076;17.046;2023-04-07T08:01:31;100303.09;;;5.14;79.35
31717;BME280;18301;51.076;17.046;2023-04-07T08:06:32;100290.84;;;5.10;79.30
31717;BME280;18301;51.076;17.046;2023-04-07T08:11:34;100300.00;;;5.05;78.91
31717;BME280;18301;51.076;17.046;2023-04-07T08:16:36;100289.41;;;5.53;78.13
31717;BME280;18301;51.076;17.046;2023-04-07T08:21:38;100292.59;;;5.44;77.76
31717;BME280;18301;51.076;17.046;2023-04-07T08:26:39;100292.81;;;5.23;78.68
31717;BME280;18301;51.076;17.046;2023-04-07T08:31:41;100297.03;;;5.27;78.81
31717;BME280;18301;51.076;17.046;2023-04-07T08:36:42;100293.72;;;5.40;77.83
31717;BME280;18301;51.076;17.046;2023-04-07T08:41:45;100281.41;;;5.36;78.37
31717;BME280;18301;51.076;17.046;2023-04-07T08:46:47;100277.44;;;5.92;77.50
31717;BME280;18301;51.076;17.046;2023-04-07T08:51:53;100290.34;;;6.01;77.15
31717;BME280;18301;51.076;17.046;2023-04-07T08:56:55;100287.06;;;5.96;77.25
31717;BME280;18301;51.076;17.046;2023-04-07T09:01:58;100286.44;;;5.42;78.46
31717;BME280;18301;51.076;17.046;2023-04-07T09:06:59;100274.50;;;5.65;77.40
31717;BME280;18301;51.076;17.046;2023-04-07T09:12:02;100275.41;;;5.48;77.91
31717;BME280;18301;51.076;17.046;2023-04-07T09:17:03;100285.59;;;5.57;78.17
31717;BME280;18301;51.076;17.046;2023-04-07T09:22:05;100284.06;;;5.85;77.47
31717;BME280;18301;51.076;17.046;2023-04-07T09:27:15;100286.63;;;6.04;77.54
31717;BME280;18301;51.076;17.046;2023-04-07T09:32:34;100273.75;;;6.10;76.48
31717;BME280;18301;51.076;17.046;2023-04-07T09:37:37;100278.06;;;5.97;77.53
31717;BME280;18301;51.076;17.046;2023-04-07T09:42:45;100280.66;;;6.14;76.31
31717;BME280;18301;51.076;17.046;2023-04-07T09:47:48;100277.69;;;6.35;74.76
31717;BME280;18301;51.076;17.046;2023-04-07T09:52:51;100282.88;;;6.06;75.93
31717;BME280;18301;51.076;17.046;2023-04-07T09:57:52;100281.50;;;5.67;77.47
31717;BME280;18301;51.076;17.046;2023-04-07T10:02:56;100277.50;;;5.90;77.17
31717;BME280;18301;51.076;17.046;2023-04-07T10:07:59;100276.47;;;6.25;75.93
31717;BME280;18301;51.076;17.046;2023-04-07T10:13:03;100274.59;;;6.11;76.30
31717;BME280;18301;51.076;17.046;2023-04-07T10:18:06;100271.94;;;5.95;76.98
31717;BME280;18301;51.076;17.046;2023-04-07T10:28:37;100267.16;;;6.00;77.02
31717;BME280;18301;51.076;17.046;2023-04-07T10:33:47;100264.22;;;5.89;77.72
31717;BME280;18301;51.076;17.046;2023-04-07T10:44:43;100273.00;;;5.91;78.32
31717;BME280;18301;51.076;17.046;2023-04-07T10:50:16;100275.03;;;6.03;78.20
31717;BME280;18301;51.076;17.046;2023-04-07T10:55:36;100273.97;;;5.90;79.19
31717;BME280;18301;51.076;17.046;2023-04-07T11:00:38;100272.72;;;6.13;79.05
31717;BME280;18301;51.076;17.046;2023-04-07T11:05:40;100277.88;;;6.32;79.43
31717;BME280;18301;51.076;17.046;2023-04-07T11:10:46;100267.47;;;6.41;78.81
31717;BME280;18301;51.076;17.046;2023-04-07T11:15:49;100276.72;;;6.36;78.75
31717;BME280;18301;51.076;17.046;2023-04-07T11:20:56;100274.28;;;6.47;78.44
31717;BME280;18301;51.076;17.046;2023-04-07T11:26:01;100281.31;;;6.34;78.14
31717;BME280;18301;51.076;17.046;2023-04-07T11:31:03;100275.41;;;6.43;77.22
31717;BME280;18301;51.076;17.046;2023-04-07T11:36:05;100282.13;;;6.20;78.60
31717;BME280;18301;51.076;17.046;2023-04-07T11:41:13;100275.63;;;6.24;79.33
31717;BME280;18301;51.076;17.046;2023-04-07T11:46:17;100270.09;;;6.11;79.37
31717;BME280;18301;51.076;17.046;2023-04-07T11:51:21;100259.53;;;6.24;78.50
31717;BME280;18301;51.076;17.046;2023-04-07T11:56:24;100264.00;;;5.60;82.26
31717;BME280;18301;51.076;17.046;2023-04-07T12:01:39;100256.16;;;5.41;83.33
31717;BME280;18301;51.076;17.046;2023-04-07T12:06:42;100263.38;;;5.88;81.74
31717;BME280;18301;51.076;17.046;2023-04-07T12:11:48;100259.75;;;6.05;80.57
31717;BME280;18301;51.076;17.046;2023-04-07T12:16:50;100253.69;;;6.02;80.83
31717;BME280;18301;51.076;17.046;2023-04-07T12:21:54;100251.28;;;6.13;80.25
31717;BME280;18301;51.076;17.046;2023-04-07T12:26:56;100252.88;;;6.15;80.11
31717;BME280;18301;51.076;17.046;2023-04-07T12:31:58;100255.34;;;6.04;80.38
31717;BME280;18301;51.076;17.046;2023-04-07T12:37:00;100242.44;;;6.27;79.94
31717;BME280;18301;51.076;17.046;2023-04-07T12:42:01;100233.84;;;6.36;80.02
31717;BME280;18301;51.076;17.046;2023-04-07T12:47:03;100246.34;;;6.51;79.28
31717;BME280;18301;51.076;17.046;2023-04-07T12:52:04;100234.44;;;6.41;80.32
31717;BME280;18301;51.076;17.046;2023-04-07T12:57:06;100240.00;;;6.52;79.74
31717;BME280;18301;51.076;17.046;2023-04-07T13:02:08;100243.97;;;6.31;80.10
31717;BME280;18301;51.076;17.046;2023-04-07T13:07:10;100239.13;;;6.21;80.72
31717;BME280;18301;51.076;17.046;2023-04-07T13:12:12;100241.78;;;6.07;80.62
31717;BME280;18301;51.076;17.046;2023-04-07T13:17:14;100236.25;;;6.10;80.43
31717;BME280;18301;51.076;17.046;2023-04-07T13:22:15;100223.81;;;6.39;78.85
31717;BME280;18301;51.076;17.046;2023-04-07T13:27:22;100223.16;;;6.20;80.22
31717;BME280;18301;51.076;17.046;2023-04-07T13:32:23;100229.25;;;6.38;79.92
31717;BME280;18301;51.076;17.046;2023-04-07T13:37:25;100237.06;;;6.27;80.65
31717;BME280;18301;51.076;17.046;2023-04-07T13:42:26;100227.34;;;6.40;80.19
31717;BME280;18301;51.076;17.046;2023-04-07T13:47:28;100238.25;;;6.37;80.66
31717;BME280;18301;51.076;17.046;2023-04-07T13:52:34;100240.00;;;6.38;80.67
31717;BME280;18301;51.076;17.046;2023-04-07T13:57:36;100223.72;;;6.41;80.53
31717;BME280;18301;51.076;17.046;2023-04-07T14:02:37;100230.06;;;6.54;80.24
31717;BME280;18301;51.076;17.046;2023-04-07T14:07:39;100236.75;;;6.47;80.24
31717;BME280;18301;51.076;17.046;2023-04-07T14:12:41;100240.66;;;6.41;80.69
31717;BME280;18301;51.076;17.046;2023-04-07T14:17:42;100240.34;;;6.32;80.93
31717;BME280;18301;51.076;17.046;2023-04-07T14:22:44;100232.66;;;6.56;79.98
31717;BME280;18301;51.076;17.046;2023-04-07T14:27:45;100241.03;;;6.35;82.31
31717;BME280;18301;51.076;17.046;2023-04-07T14:32:47;100239.25;;;6.50;82.80
31717;BME280;18301;51.076;17.046;2023-04-07T14:37:48;100232.28;;;6.62;82.35
31717;BME280;18301;51.076;17.046;2023-04-07T14:42:50;100235.31;;;6.41;83.33
31717;BME280;18301;51.076;17.046;2023-04-07T14:48:07;100243.84;;;6.02;85.26
31717;BME280;18301;51.076;17.046;2023-04-07T14:53:09;100240.81;;;6.08;85.07
31717;BME280;18301;51.076;17.046;2023-04-07T14:58:10;100242.78;;;5.89;86.92
31717;BME280;18301;51.076;17.046;2023-04-07T15:03:12;100235.38;;;5.94;86.42
31717;BME280;18301;51.076;17.046;2023-04-07T15:08:14;100246.59;;;6.16;85.49
31717;BME280;18301;51.076;17.046;2023-04-07T15:13:16;100246.63;;;6.31;86.60
31717;BME280;18301;51.076;17.046;2023-04-07T15:18:20;100244.31;;;6.25;85.73
31717;BME280;18301;51.076;17.046;2023-04-07T15:23:21;100251.78;;;6.19;85.89
31717;BME280;18301;51.076;17.046;2023-04-07T15:28:23;100250.72;;;6.38;84.99
31717;BME280;18301;51.076;17.046;2023-04-07T15:33:24;100254.63;;;6.16;87.03
31717;BME280;18301;51.076;17.046;2023-04-07T15:38:29;100247.09;;;6.23;86.37
31717;BME280;18301;51.076;17.046;2023-04-07T15:43:30;100244.13;;;6.28;87.15
31717;BME280;18301;51.076;17.046;2023-04-07T15:48:32;100249.69;;;6.25;86.34
31717;BME280;18301;51.076;17.046;2023-04-07T15:53:34;100246.25;;;6.22;86.92
31717;BME280;18301;51.076;17.046;2023-04-07T15:58:35;100252.59;;;6.36;87.13
31717;BME280;18301;51.076;17.046;2023-04-07T16:03:36;100244.00;;;6.15;88.25
31717;BME280;18301;51.076;17.046;2023-04-07T16:08:38;100246.28;;;6.37;87.65
31717;BME280;18301;51.076;17.046;2023-04-07T16:13:40;100239.63;;;6.44;86.84
31717;BME280;18301;51.076;17.046;2023-04-07T16:18:41;100241.44;;;5.97;89.40
31717;BME280;18301;51.076;17.046;2023-04-07T16:23:42;100240.72;;;6.26;88.15
31717;BME280;18301;51.076;17.046;2023-04-07T16:28:44;100238.97;;;6.25;88.35
31717;BME280;18301;51.076;17.046;2023-04-07T16:33:45;100243.78;;;6.34;88.01
31717;BME280;18301;51.076;17.046;2023-04-07T16:38:47;100235.53;;;6.22;89.21
31717;BME280;18301;51.076;17.046;2023-04-07T16:43:51;100231.81;;;6.09;88.83
31717;BME280;18301;51.076;17.046;2023-04-07T16:48:52;100245.22;;;6.09;90.07
31717;BME280;18301;51.076;17.046;2023-04-07T16:53:54;100241.78;;;6.07;89.83
31717;BME280;18301;51.076;17.046;2023-04-07T16:58:55;100253.59;;;6.03;89.72
31717;BME280;18301;51.076;17.046;2023-04-07T17:03:57;100255.84;;;6.11;89.81
31717;BME280;18301;51.076;17.046;2023-04-07T17:08:58;100261.63;;;6.03;90.75
31717;BME280;18301;51.076;17.046;2023-04-07T17:14:00;100265.34;;;6.16;89.78
31717;BME280;18301;51.076;17.046;2023-04-07T17:19:01;100271.66;;;6.15;89.68
31717;BME280;18301;51.076;17.046;2023-04-07T17:24:03;100277.53;;;6.06;90.92
31717;BME280;18301;51.076;17.046;2023-04-07T17:29:04;100269.31;;;6.25;90.88
31717;BME280;18301;51.076;17.046;2023-04-07T17:34:06;100266.47;;;6.12;90.54
31717;BME280;18301;51.076;17.046;2023-04-07T17:39:07;100278.56;;;6.19;90.27
31717;BME280;18301;51.076;17.046;2023-04-07T17:44:09;100270.22;;;6.40;89.22
31717;BME280;18301;51.076;17.046;2023-04-07T17:49:10;100283.97;;;6.04;91.68
31717;BME280;18301;51.076;17.046;2023-04-07T17:54:12;100288.66;;;5.83;93.58
31717;BME280;18301;51.076;17.046;2023-04-07T17:59:13;100290.50;;;6.14;91.13
31717;BME280;18301;51.076;17.046;2023-04-07T18:04:14;100285.00;;;6.01;92.80
31717;BME280;18301;51.076;17.046;2023-04-07T18:09:17;100290.84;;;6.08;91.73
31717;BME280;18301;51.076;17.046;2023-04-07T18:14:18;100301.13;;;6.15;92.52
31717;BME280;18301;51.076;17.046;2023-04-07T18:19:20;100296.03;;;6.27;91.18
31717;BME280;18301;51.076;17.046;2023-04-07T18:24:25;100296.81;;;6.29;92.22
31717;BME280;18301;51.076;17.046;2023-04-07T18:29:27;100298.72;;;6.11;92.48
31717;BME280;18301;51.076;17.046;2023-04-07T18:34:28;100304.22;;;6.23;91.51
31717;BME280;18301;51.076;17.046;2023-04-07T18:39:30;100310.56;;;6.22;91.69
31717;BME280;18301;51.076;17.046;2023-04-07T18:44:31;100307.91;;;6.37;91.30
31717;BME280;18301;51.076;17.046;2023-04-07T18:49:33;100306.13;;;6.21;92.02
31717;BME280;18301;51.076;17.046;2023-04-07T18:54:35;100304.50;;;6.35;91.85
31717;BME280;18301;51.076;17.046;2023-04-07T18:59:36;100308.56;;;6.10;91.92
31717;BME280;18301;51.076;17.046;2023-04-07T19:04:38;100310.41;;;6.10;92.42
31717;BME280;18301;51.076;17.046;2023-04-07T19:09:40;100310.03;;;6.00;93.27
31717;BME280;18301;51.076;17.046;2023-04-07T19:14:42;100311.13;;;5.80;94.92
31717;BME280;18301;51.076;17.046;2023-04-07T19:19:44;100306.41;;;6.01;93.41
31717;BME280;18301;51.076;17.046;2023-04-07T19:24:46;100313.63;;;5.67;96.08
31717;BME280;18301;51.076;17.046;2023-04-07T19:29:47;100319.38;;;5.93;93.58
31717;BME280;18301;51.076;17.046;2023-04-07T19:34:49;100308.41;;;6.13;93.70
31717;BME280;18301;51.076;17.046;2023-04-07T19:39:50;100313.31;;;6.05;93.47
31717;BME280;18301;51.076;17.046;2023-04-07T19:45:03;100315.22;;;6.03;93.98
31717;BME280;18301;51.076;17.046;2023-04-07T19:50:08;100313.84;;;5.96;94.23
31717;BME280;18301;51.076;17.046;2023-04-07T19:55:12;100309.16;;;6.15;93.86
31717;BME280;18301;51.076;17.046;2023-04-07T20:00:13;100308.13;;;6.18;93.44
31717;BME280;18301;51.076;17.046;2023-04-07T20:05:17;100300.69;;;6.23;92.83
31717;BME280;18301;51.076;17.046;2023-04-07T20:10:20;100313.81;;;6.12;93.30
31717;BME280;18301;51.076;17.046;2023-04-07T20:15:21;100302.09;;;5.98;94.97
31717;BME280;18301;51.076;17.046;2023-04-07T20:20:25;100307.97;;;6.05;93.88
31717;BME280;18301;51.076;17.046;2023-04-07T20:25:26;100317.47;;;6.27;92.62
31717;BME280;18301;51.076;17.046;2023-04-07T20:30:28;100322.25;;;5.72;96.23
31717;BME280;18301;51.076;17.046;2023-04-07T20:35:29;100311.75;;;6.17;94.32
31717;BME280;18301;51.076;17.046;2023-04-07T20:40:35;100310.50;;;5.91;95.43
31717;BME280;18301;51.076;17.046;2023-04-07T20:45:37;100300.72;;;6.07;94.43
31717;BME280;18301;51.076;17.046;2023-04-07T20:50:39;100313.84;;;5.96;95.38
31717;BME280;18301;51.076;17.046;2023-04-07T20:55:40;100310.91;;;6.01;94.94
31717;BME280;18301;51.076;17.046;2023-04-07T21:00:43;100299.66;;;5.94;95.09
31717;BME280;18301;51.076;17.046;2023-04-07T21:05:45;100304.13;;;5.77;96.82
31717;BME280;18301;51.076;17.046;2023-04-07T21:10:49;100306.41;;;6.01;96.29
31717;BME280;18301;51.076;17.046;2023-04-07T21:15:51;100311.25;;;6.10;95.33
31717;BME280;18301;51.076;17.046;2023-04-07T21:20:55;100310.03;;;6.00;95.77
31717;BME280;18301;51.076;17.046;2023-04-07T21:26:02;100316.97;;;6.04;95.61
31717;BME280;18301;51.076;17.046;2023-04-07T21:31:03;100315.38;;;6.00;95.34
31717;BME280;18301;51.076;17.046;2023-04-07T21:36:06;100317.84;;;5.87;96.34
31717;BME280;18301;51.076;17.046;2023-04-07T21:41:08;100314.69;;;6.12;95.25
31717;BME280;18301;51.076;17.046;2023-04-07T21:46:10;100309.16;;;6.15;95.57
31717;BME280;18301;51.076;17.046;2023-04-07T21:51:14;100313.94;;;5.94;96.27
31717;BME280;18301;51.076;17.046;2023-04-07T21:56:15;100302.09;;;5.98;96.11
31717;BME280;18301;51.076;17.046;2023-04-07T22:01:17;100305.44;;;5.86;96.80
31717;BME280;18301;51.076;17.046;2023-04-07T22:06:19;100313.31;;;6.05;95.85
31717;BME280;18301;51.076;17.046;2023-04-07T22:11:20;100313.16;;;6.08;96.18
31717;BME280;18301;51.076;17.046;2023-04-07T22:16:22;100314.34;;;6.03;96.31
31717;BME280;18301;51.076;17.046;2023-04-07T22:21:24;100315.38;;;6.00;96.57
31717;BME280;18301;51.076;17.046;2023-04-07T22:26:25;100322.91;;;6.09;96.58
31717;BME280;18301;51.076;17.046;2023-04-07T22:31:27;100313.59;;;6.01;97.11
31717;BME280;18301;51.076;17.046;2023-04-07T22:36:28;100301.91;;;6.17;97.41
31717;BME280;18301;51.076;17.046;2023-04-07T22:41:29;100311.13;;;6.28;96.83
31717;BME280;18301;51.076;17.046;2023-04-07T22:46:31;100314.69;;;6.28;96.65
31717;BME280;18301;51.076;17.046;2023-04-07T22:51:32;100325.22;;;6.15;96.77
31717;BME280;18301;51.076;17.046;2023-04-07T22:56:34;100336.31;;;6.25;96.65
31717;BME280;18301;51.076;17.046;2023-04-07T23:01:36;100337.22;;;6.40;96.48
31717;BME280;18301;51.076;17.046;2023-04-07T23:06:37;100337.34;;;6.38;96.64
31717;BME280;18301;51.076;17.046;2023-04-07T23:11:40;100341.66;;;6.41;96.42
31717;BME280;18301;51.076;17.046;2023-04-07T23:16:42;100342.25;;;6.46;96.25
31717;BME280;18301;51.076;17.046;2023-04-07T23:21:43;100348.88;;;6.55;96.23
31717;BME280;18301;51.076;17.046;2023-04-07T23:26:45;100350.34;;;6.60;96.19
31717;BME280;18301;51.076;17.046;2023-04-07T23:31:46;100347.69;;;6.60;95.98
31717;BME280;18301;51.076;17.046;2023-04-07T23:36:48;100347.13;;;6.69;96.14
31717;BME280;18301;51.076;17.046;2023-04-07T23:41:50;100350.59;;;6.72;95.78
31717;BME280;18301;51.076;17.046;2023-04-07T23:46:52;100355.78;;;6.75;95.00
31717;BME280;18301;51.076;17.046;2023-04-07T23:51:54;100355.06;;;6.71;95.25
31717;BME280;18301;51.076;17.046;2023-04-07T23:56:55;100354.91;;;6.74;95.07
